Time;durP1;ratioP1;P1;durP2;ratioP2;P2;SDS_P1;SDS_P2;PMS_P1;PMS_P2;Temp;Humidity;BMP_temperature;BMP_pressure;BME280_temperature;BME280_humidity;BME280_pressure;Samples;Min_cycle;Max_cycle;Signal;HPM_P1;HPM_P2
2023/10/24 00:01:52;;;;;;;3.20;2.75;;;;;;;14.41;100.00;100518.81;4975056;28;20386;-72
2023/10/24 00:04:18;;;;;;;3.85;2.47;;;;;;;14.34;100.00;100512.75;4963506;28;20039;-73
2023/10/24 00:06:43;;;;;;;4.13;1.30;;;;;;;14.62;100.00;100578.41;4956773;28;20040;-72
2023/10/24 00:09:09;;;;;;;3.03;2.72;;;;;;;14.89;100.00;100602.66;4956654;28;20035;-72
2023/10/24 00:11:36;;;;;;;4.35;3.42;;;;;;;14.30;100.00;100481.13;4973806;28;20022;-71
2023/10/24 00:28:27;;;;;;;5.28;3.33;;;;;;;14.34;100.00;100597.22;4975390;28;20126;-73
2023/10/24 00:30:53;;;;;;;1.65;1.55;;;;;;;13.82;100.00;100483.53;4970652;28;20125;-71
2023/10/24 00:33:18;;;;;;;1.73;1.58;;;;;;;14.02;100.00;100514.94;4989686;28;20058;-72
2023/10/24 00:35:44;;;;;;;2.80;2.58;;;;;;;13.91;100.00;100486.06;4959631;28;20026;-72
2023/10/24 00:38:10;;;;;;;4.60;3.33;;;;;;;14.62;100.00;100572.25;4956070;28;20027;-72
2023/10/24 00:40:36;;;;;;;7.32;4.88;;;;;;;14.60;100.00;100598.69;4971930;28;20054;-72
2023/10/24 00:43:04;;;;;;;3.45;2.92;;;;;;;14.67;100.00;100602.97;4959942;28;20502;-72
2023/10/24 00:45:30;;;;;;;8.38;4.32;;;;;;;14.50;100.00;100576.78;4953010;28;20118;-72
2023/10/24 00:47:56;;;;;;;5.28;2.38;;;;;;;14.00;100.00;100495.59;4955545;28;20031;-72
2023/10/24 00:53:43;;;;;;;3.65;2.47;;;;;;;14.05;100.00;100510.50;4957788;28;20045;-72
2023/10/24 01:02:53;;;;;;;1.92;1.80;;;;;;;14.16;100.00;100600.06;4975352;28;20073;-71
2023/10/24 01:05:18;;;;;;;3.67;3.03;;;;;;;14.23;100.00;100601.75;4975172;28;20122;-72
2023/10/24 01:07:45;;;;;;;3.33;3.05;;;;;;;14.04;100.00;100548.31;4963484;28;20137;-72
2023/10/24 01:10:11;;;;;;;3.45;2.85;;;;;;;14.14;100.00;100596.56;4968745;28;20043;-73
2023/10/24 01:12:50;;;;;;;2.50;2.22;;;;;;;13.78;100.00;100545.13;4953227;28;20672;-72
2023/10/24 01:15:17;;;;;;;3.20;2.92;;;;;;;14.14;100.00;100580.75;4959661;28;20039;-71
2023/10/24 01:17:53;;;;;;;2.80;1.95;;;;;;;13.69;100.00;100580.38;4975358;28;20370;-72
2023/10/24 01:20:19;;;;;;;3.47;3.17;;;;;;;13.61;100.00;100555.84;4953636;28;20054;-72
2023/10/24 01:26:07;;;;;;;4.25;3.85;;;;;;;13.40;100.00;100499.81;4955156;28;20506;-72
2023/10/24 01:28:33;;;;;;;2.72;2.50;;;;;;;13.38;100.00;100495.44;4967086;28;20080;-72
2023/10/24 01:30:58;;;;;;;3.70;3.40;;;;;;;13.52;100.00;100515.50;4971097;28;20427;-72
2023/10/24 01:33:24;;;;;;;1.35;1.10;;;;;;;13.97;100.00;100595.91;4970921;28;20046;-72
2023/10/24 01:36:31;;;;;;;2.83;2.53;;;;;;;13.87;100.00;100616.25;4971153;28;20023;-72
2023/10/24 01:39:34;;;;;;;4.05;3.75;;;;;;;13.69;100.00;100612.88;4968924;28;20026;-72
2023/10/24 01:41:59;;;;;;;2.42;1.40;;;;;;;13.62;100.00;100621.72;4968517;28;20042;-72
2023/10/24 01:44:26;;;;;;;4.28;3.45;;;;;;;13.35;100.00;100593.00;4972142;28;20015;-73
2023/10/24 01:46:52;;;;;;;10.30;4.03;;;;;;;13.75;100.00;100619.00;4971924;28;20478;-71
2023/10/24 01:49:17;;;;;;;4.55;3.80;;;;;;;13.70;100.00;100624.31;4974566;28;20041;-72
2023/10/24 01:51:42;;;;;;;6.03;4.75;;;;;;;13.64;100.00;100600.63;4970702;28;20035;-71
2023/10/24 01:54:08;;;;;;;2.95;2.15;;;;;;;13.61;100.00;100591.00;4971823;28;20093;-71
2023/10/24 01:56:33;;;;;;;2.75;2.17;;;;;;;13.14;100.00;100515.84;4967677;28;20026;-72
2023/10/24 01:58:59;;;;;;;2.28;2.08;;;;;;;13.19;100.00;100623.84;4970689;28;20431;-72
2023/10/24 02:01:24;;;;;;;3.67;3.30;;;;;;;12.79;100.00;100519.63;4969896;28;20043;-72
2023/10/24 02:03:50;;;;;;;2.58;2.38;;;;;;;12.70;100.00;100540.75;4974069;28;20117;-72
2023/10/24 02:09:37;;;;;;;3.70;2.88;;;;;;;12.58;100.00;100525.06;4969852;28;20122;-72
2023/10/24 02:12:03;;;;;;;5.93;5.40;;;;;;;12.84;100.00;100535.41;4961393;28;20129;-73
2023/10/24 02:14:29;;;;;;;2.40;2.20;;;;;;;13.34;100.00;100636.03;4963504;28;20031;-71
2023/10/24 02:17:17;;;;;;;5.43;4.90;;;;;;;13.19;100.00;100650.19;4930697;28;20051;-71
2023/10/24 02:19:49;;;;;;;3.60;2.22;;;;;;;13.19;100.00;100643.16;4954496;28;20383;-71
2023/10/24 02:22:21;;;;;;;7.88;4.43;;;;;;;13.20;100.00;100654.56;4935215;28;20051;-72
2023/10/24 02:24:47;;;;;;;2.58;2.00;;;;;;;13.18;100.00;100651.97;4932858;28;20043;-71
2023/10/24 02:27:13;;;;;;;6.40;3.63;;;;;;;12.96;100.00;100650.34;4947006;28;20041;-72
2023/10/24 02:29:38;;;;;;;3.25;2.88;;;;;;;12.27;100.00;100548.91;4952696;28;20110;-72
2023/10/24 02:32:04;;;;;;;1.98;1.33;;;;;;;12.40;100.00;100549.72;4946769;28;20047;-71
2023/10/24 02:34:30;;;;;;;3.42;3.13;;;;;;;13.05;100.00;100672.22;4949350;28;20086;-72
2023/10/24 02:36:55;;;;;;;2.03;1.88;;;;;;;12.27;100.00;100558.53;4951302;28;20039;-71
2023/10/24 02:39:41;;;;;;;2.67;1.98;;;;;;;12.91;100.00;100667.94;4977483;28;20119;-71
2023/10/24 02:43:02;;;;;;;2.90;2.40;;;;;;;13.12;100.00;100661.66;4948272;28;20027;-72
2023/10/24 02:49:00;;;;;;;4.30;3.90;;;;;;;12.84;100.00;100554.69;4933915;28;20055;-73
2023/10/24 02:51:28;;;;;;;5.45;3.10;;;;;;;11.76;100.00;100366.81;4949003;28;20042;-73
2023/10/24 02:58:07;;;;;;;3.53;3.22;;;;;;;13.20;100.00;100623.81;4954127;28;20139;-73
2023/10/24 03:04:17;;;;;;;2.20;2.00;;;;;;;13.34;100.00;100652.72;4956269;28;20093;-72
2023/10/24 03:10:05;;;;;;;3.92;3.25;;;;;;;12.63;100.00;100546.94;4957828;28;20126;-72
2023/10/24 03:12:31;;;;;;;6.07;4.68;;;;;;;12.59;100.00;100556.63;4957282;28;20110;-72
2023/10/24 03:14:57;;;;;;;4.40;3.80;;;;;;;13.25;100.00;100650.13;4957464;28;20458;-72
2023/10/24 03:17:23;;;;;;;2.17;1.75;;;;;;;12.59;100.00;100534.69;4957652;28;20372;-72
2023/10/24 03:19:48;;;;;;;1.83;1.63;;;;;;;13.13;100.00;100644.94;4953236;28;20042;-71
2023/10/24 03:22:13;;;;;;;6.40;3.70;;;;;;;13.10;100.00;100622.13;4975475;28;20054;-73
2023/10/24 03:24:39;;;;;;;2.97;1.63;;;;;;;12.56;100.00;100542.63;4972949;28;20027;-73
2023/10/24 03:30:27;;;;;;;2.28;1.98;;;;;;;12.98;100.00;100656.47;4976707;28;20061;-71
2023/10/24 03:32:52;;;;;;;3.67;1.77;;;;;;;12.27;100.00;100540.13;4974627;28;20022;-71
2023/10/24 03:35:18;;;;;;;4.00;2.05;;;;;;;12.23;100.00;100553.31;4972150;28;20026;-72
2023/10/24 03:41:08;;;;;;;9.18;4.05;;;;;;;12.01;100.00;100568.31;4974281;28;20045;-72
2023/10/24 03:53:38;;;;;;;10.05;3.92;;;;;;;11.75;100.00;100565.72;4957716;28;20046;-72
2023/10/24 03:56:04;;;;;;;1.73;1.52;;;;;;;11.88;100.00;100597.28;4969537;28;20399;-72
2023/10/24 03:58:30;;;;;;;8.63;5.97;;;;;;;12.40;100.00;100697.09;4975838;28;20046;-72
2023/10/24 04:00:55;;;;;;;4.05;3.67;;;;;;;11.68;100.00;100578.88;4961386;28;20047;-72
2023/10/24 04:03:21;;;;;;;4.63;3.50;;;;;;;12.00;100.00;100613.88;4955069;28;20032;-73
2023/10/24 04:05:48;;;;;;;4.15;2.80;;;;;;;12.13;100.00;100598.94;4972055;28;20031;-73
2023/10/24 04:08:13;;;;;;;6.93;6.18;;;;;;;11.91;100.00;100581.47;4973263;28;20042;-72
2023/10/24 04:10:38;;;;;;;3.50;2.58;;;;;;;12.19;100.00;100616.47;4974243;28;20046;-72
2023/10/24 04:13:04;;;;;;;2.85;1.90;;;;;;;11.92;100.00;100567.47;4972235;28;20043;-72
2023/10/24 04:15:29;;;;;;;6.47;4.10;;;;;;;12.43;100.00;100629.53;4975312;28;20031;-73
2023/10/24 04:25:43;;;;;;;0.25;0.25;;;;;;;12.95;100.00;100681.06;4976243;28;20122;-74
2023/10/24 04:31:30;;;;;;;4.57;4.20;;;;;;;12.71;100.00;100652.22;4975251;28;20122;-71
2023/10/24 04:33:55;;;;;;;5.78;3.78;;;;;;;12.61;100.00;100656.66;4969749;28;20047;-72
2023/10/24 04:36:20;;;;;;;21.65;4.00;;;;;;;12.85;100.00;100681.97;4972102;28;20047;-72
2023/10/24 04:38:46;;;;;;;3.17;2.88;;;;;;;12.36;100.00;100582.19;4973139;28;20085;-73
2023/10/24 04:41:55;;;;;;;2.95;2.75;;;;;;;12.97;100.00;100683.69;4972633;28;20374;-73
2023/10/24 04:44:21;;;;;;;2.00;1.58;;;;;;;12.80;100.00;100639.88;4969621;28;20559;-71
2023/10/24 04:46:47;;;;;;;2.60;2.40;;;;;;;12.80;100.00;100670.59;4961189;28;20034;-72
2023/10/24 04:49:15;;;;;;;4.93;3.70;;;;;;;13.01;100.00;100693.31;4970487;28;20065;-73
2023/10/24 04:52:09;;;;;;;4.43;2.85;;;;;;;13.07;100.00;100699.44;4972845;28;20027;-72
2023/10/24 04:58:00;;;;;;;2.10;1.65;;;;;;;13.15;100.00;100701.16;4969788;28;20053;-71
2023/10/24 05:00:26;;;;;;;3.38;2.17;;;;;;;12.59;100.00;100588.19;4968360;28;20054;-71
2023/10/24 05:02:52;;;;;;;4.90;3.20;;;;;;;12.66;100.00;100612.75;4968187;28;20022;-71
2023/10/24 05:05:18;;;;;;;1.15;1.05;;;;;;;13.01;100.00;100688.91;4970656;28;20026;-71
2023/10/24 05:11:05;;;;;;;2.58;2.17;;;;;;;12.99;100.00;100703.84;4974839;28;20156;-72
2023/10/24 05:13:30;;;;;;;3.08;2.78;;;;;;;12.95;100.00;100741.66;4972326;28;20526;-72
2023/10/24 05:15:56;;;;;;;3.35;2.45;;;;;;;12.76;100.00;100743.50;4973766;28;20039;-72
2023/10/24 05:21:50;;;;;;;5.45;2.40;;;;;;;12.79;100.00;100785.59;4962686;28;20574;-72
2023/10/24 05:24:15;;;;;;;3.22;2.35;;;;;;;12.83;100.00;100787.34;4972082;28;20170;-72
2023/10/24 05:26:41;;;;;;;9.40;3.88;;;;;;;13.10;100.00;100794.25;4974216;28;20030;-72
2023/10/24 05:29:06;;;;;;;2.22;2.03;;;;;;;12.73;100.00;100758.41;4971563;28;20117;-72
2023/10/24 05:31:32;;;;;;;5.22;3.95;;;;;;;13.05;100.00;100774.97;4972279;28;20039;-73
2023/10/24 05:33:57;;;;;;;2.90;1.83;;;;;;;13.23;100.00;100766.09;4972427;28;20364;-73
2023/10/24 05:36:23;;;;;;;1.65;1.45;;;;;;;13.09;100.00;100725.78;4972019;28;20034;-72
2023/10/24 05:38:49;;;;;;;2.72;2.50;;;;;;;12.77;100.00;100649.56;4972446;28;20475;-72
2023/10/24 05:41:14;;;;;;;2.20;2.00;;;;;;;13.43;100.00;100749.31;4973002;28;20042;-73
2023/10/24 05:43:40;;;;;;;2.78;1.80;;;;;;;12.66;100.00;100668.03;4968561;28;20395;-73
2023/10/24 05:46:05;;;;;;;3.75;3.47;;;;;;;13.37;100.00;100758.16;4971631;28;20137;-74
2023/10/24 05:48:32;;;;;;;2.72;2.25;;;;;;;13.29;100.00;100745.00;4971492;28;20101;-78
2023/10/24 05:54:19;;;;;;;1.20;1.08;;;;;;;12.57;100.00;100634.75;4974978;28;20108;-85
2023/10/24 05:56:45;;;;;;;3.55;2.58;;;;;;;13.20;100.00;100737.13;4972856;28;20023;-85
2023/10/24 05:59:10;;;;;;;1.92;1.65;;;;;;;12.12;100.00;100568.25;4968566;28;20121;-86
2023/10/24 06:01:36;;;;;;;3.97;3.53;;;;;;;13.17;100.00;100742.41;4974173;28;20054;-85
2023/10/24 06:04:01;;;;;;;2.33;2.13;;;;;;;12.64;100.00;100632.94;4972662;28;20051;-85
2023/10/24 06:06:27;;;;;;;1.42;1.33;;;;;;;13.40;100.00;100758.13;4970079;28;20049;-86
2023/10/24 06:08:52;;;;;;;5.22;2.15;;;;;;;13.45;100.00;100768.66;4971068;28;20039;-85
2023/10/24 06:14:51;;;;;;;2.72;2.50;;;;;;;13.43;100.00;100747.56;4969979;28;20550;-87
2023/10/24 06:17:17;;;;;;;4.80;3.65;;;;;;;12.80;100.00;100654.81;4971109;28;20534;-88
2023/10/24 06:19:45;;;;;;;5.35;4.18;;;;;;;13.11;100.00;100687.13;4967930;28;20109;-85
2023/10/24 06:22:11;;;;;;;5.15;4.13;;;;;;;13.00;100.00;100665.25;4972220;28;20047;-86
2023/10/24 06:24:36;;;;;;;3.10;2.78;;;;;;;13.09;100.00;100660.78;4968301;28;20047;-84
2023/10/24 06:30:41;;;;;;;1.58;1.30;;;;;;;13.87;100.00;100771.88;4971920;28;20094;-86
2023/10/24 06:33:55;;;;;;;1.98;1.77;;;;;;;13.91;100.00;100773.63;4978685;28;20019;-86
2023/10/24 06:36:23;;;;;;;;;;;;;;;13.96;100.00;100776.22;4970985;28;20039;-87
2023/10/24 06:38:51;;;;;;;3.33;2.22;;;;;;;14.05;100.00;100766.44;5005462;28;20009;-87
2023/10/24 06:41:46;;;;;;;1.10;1.00;;;;;;;14.28;100.00;100770.63;4975219;28;20037;-86
2023/10/24 06:44:12;;;;;;;1.70;1.35;;;;;;;14.30;100.00;100758.28;4976620;28;20043;-86
2023/10/24 06:46:56;;;;;;;6.90;2.13;;;;;;;14.19;100.00;100717.94;4971450;28;20533;-86
2023/10/24 06:49:22;;;;;;;3.80;2.88;;;;;;;14.41;100.00;100756.44;4969450;28;20035;-85
2023/10/24 06:52:12;;;;;;;0.70;0.52;;;;;;;14.65;100.00;100751.81;4972179;28;20046;-87
2023/10/24 06:54:37;;;;;;;2.45;1.90;;;;;;;14.70;100.00;100750.88;4974807;28;20054;-85
2023/10/24 06:57:03;;;;;;;1.55;1.45;;;;;;;14.81;100.00;100756.03;4974582;28;20447;-86
2023/10/24 06:59:30;;;;;;;3.88;3.22;;;;;;;14.89;100.00;100762.09;4970114;28;20102;-91
2023/10/24 07:01:55;;;;;;;2.28;2.10;;;;;;;14.94;100.00;100762.03;4973595;28;20431;-86
2023/10/24 07:04:21;;;;;;;0.98;0.63;;;;;;;14.98;100.00;100761.09;4970984;28;20078;-86
2023/10/24 07:06:46;;;;;;;1.30;1.20;;;;;;;14.41;100.00;100644.66;4971188;28;20372;-84
2023/10/24 07:09:12;;;;;;;4.05;1.60;;;;;;;15.07;100.00;100737.19;4973243;28;20027;-86
2023/10/24 07:11:38;;;;;;;4.93;2.92;;;;;;;14.80;100.00;100705.81;4976975;28;20455;-84
2023/10/24 07:14:11;;;;;;;2.25;1.70;;;;;;;14.47;100.00;100636.66;4974884;28;20054;-85
2023/10/24 07:17:10;;;;;;;2.42;1.63;;;;;;;15.34;100.00;100753.59;4970595;28;20066;-85
2023/10/24 07:23:05;;;;;;;2.40;2.17;;;;;;;15.53;100.00;100727.75;4951767;28;20054;-86
2023/10/24 07:25:31;;;;;;;2.38;2.15;;;;;;;15.31;100.00;100674.28;4976187;28;20054;-86
2023/10/24 07:27:57;;;;;;;1.92;1.70;;;;;;;15.73;100.00;100727.44;4995525;28;20045;-86
2023/10/24 07:33:56;;;;;;;1.70;1.17;;;;;;;16.06;100.00;100730.41;4976561;28;20482;-85
2023/10/24 07:36:23;;;;;;;8.35;2.58;;;;;;;16.08;100.00;100731.28;4972284;28;20041;-87
2023/10/24 07:38:49;;;;;;;1.05;1.00;;;;;;;16.07;100.00;100716.31;4974012;28;20944;-85
2023/10/24 07:41:14;;;;;;;5.32;2.10;;;;;;;14.02;100.00;100361.91;4972990;28;20046;-87
2023/10/24 07:43:42;;;;;;;0.52;0.43;;;;;;;16.23;100.00;100712.47;4972118;28;21854;-86
2023/10/24 07:52:50;;;;;;;2.58;1.85;;;;;;;16.01;100.00;100628.16;4970968;28;20462;-86
2023/10/24 07:55:16;;;;;;;2.35;2.15;;;;;;;16.60;100.00;100717.94;4973585;28;20082;-86
2023/10/24 07:57:42;;;;;;;0.55;0.40;;;;;;;15.99;100.00;100629.97;5003845;28;20039;-87
2023/10/24 08:00:16;;;;;;;0.63;0.60;;;;;;;16.68;100.00;100713.34;4972295;28;20054;-85
2023/10/24 08:02:41;;;;;;;1.13;1.02;;;;;;;16.61;100.00;100722.31;4985115;28;20077;-86
2023/10/24 08:05:07;;;;;;;0.65;0.60;;;;;;;16.59;100.00;100718.81;4979227;28;20035;-86
2023/10/24 08:07:33;;;;;;;1.70;1.33;;;;;;;16.60;100.00;100699.41;4972814;28;20531;-86
2023/10/24 08:16:41;;;;;;;1.48;1.35;;;;;;;16.55;100.00;100672.13;4968810;28;20500;-87
2023/10/24 08:19:06;;;;;;;1.65;1.23;;;;;;;16.82;100.00;100706.94;4967010;28;20446;-82
2023/10/24 08:21:32;;;;;;;1.50;1.20;;;;;;;16.73;100.00;100684.09;4970406;28;20035;-86
2023/10/24 08:24:47;;;;;;;4.50;2.95;;;;;;;16.93;100.00;100706.69;4969474;28;20088;-85
2023/10/24 08:27:13;;;;;;;2.13;1.92;;;;;;;16.63;100.00;100626.91;4969371;28;20097;-85
2023/10/24 08:29:39;;;;;;;1.38;0.98;;;;;;;17.00;100.00;100716.28;4974380;28;20422;-86
2023/10/24 08:32:05;;;;;;;2.90;2.60;;;;;;;16.86;100.00;100669.72;4971109;28;20043;-85
2023/10/24 08:37:52;;;;;;;1.60;1.45;;;;;;;17.25;100.00;100698.88;4975419;28;20178;-85
2023/10/24 08:40:18;;;;;;;2.63;1.65;;;;;;;16.71;100.00;100601.09;4969765;28;20086;-86
2023/10/24 08:42:44;;;;;;;3.47;1.67;;;;;;;16.70;100.00;100575.53;4966075;28;20031;-86
2023/10/24 08:45:11;;;;;;;0.88;0.88;;;;;;;17.14;100.00;100626.69;4971003;28;20035;-86
2023/10/24 08:54:28;;;;;;;9.57;1.73;;;;;;;17.73;100.00;100639.38;4948739;28;20082;-86
2023/10/24 08:56:54;;;;;;;0.57;0.55;;;;;;;17.86;100.00;100669.16;4949512;28;20169;-85
2023/10/24 08:59:21;;;;;;;5.60;0.70;;;;;;;18.04;100.00;100691.69;4950052;28;20123;-85
2023/10/24 09:01:48;;;;;;;1.13;0.68;;;;;;;17.59;100.00;100588.44;4955411;28;20043;-85
2023/10/24 09:04:15;;;;;;;0.85;0.82;;;;;;;18.14;100.00;100666.63;4949866;28;20039;-86
2023/10/24 09:06:41;;;;;;;3.20;2.22;;;;;;;18.14;100.00;100659.56;4946188;28;20114;-86
2023/10/24 09:22:39;;;;;;;0.30;0.30;;;;;;;18.70;100.00;100652.66;4945216;28;20511;-84
2023/10/24 09:25:08;;;;;;;1.05;1.00;;;;;;;18.25;100.00;100573.38;4948903;28;20835;-87
2023/10/24 09:27:33;;;;;;;1.00;0.88;;;;;;;18.25;100.00;100565.41;4954449;28;20376;-85
2023/10/24 09:33:43;;;;;;;1.15;0.60;;;;;;;18.86;100.00;100645.97;4954761;28;20042;-85
2023/10/24 09:36:10;;;;;;;1.67;1.55;;;;;;;18.82;100.00;100625.72;4952821;28;20039;-86
2023/10/24 09:38:41;;;;;;;1.40;1.30;;;;;;;18.79;100.00;100598.38;4953964;28;20030;-85
2023/10/24 09:41:08;;;;;;;1.20;1.10;;;;;;;19.03;100.00;100637.47;4949644;28;20085;-81
2023/10/24 09:43:38;;;;;;;2.03;1.85;;;;;;;19.03;100.00;100607.34;4948453;28;20035;-86
2023/10/24 09:46:05;;;;;;;0.40;0.40;;;;;;;19.11;100.00;100611.53;4950734;28;20039;-86
2023/10/24 09:48:32;;;;;;;1.30;1.02;;;;;;;18.69;100.00;100507.38;4950642;28;20053;-85
2023/10/24 09:50:59;;;;;;;0.50;0.50;;;;;;;18.97;100.00;100528.66;4985397;28;20027;-86
2023/10/24 09:53:24;;;;;;;2.30;1.10;;;;;;;18.93;100.00;100511.91;4953672;28;20027;-86
2023/10/24 09:55:50;;;;;;;1.17;1.08;;;;;;;18.90;100.00;100514.69;4952025;28;20039;-85
2023/10/24 10:01:41;;;;;;;0.70;0.70;;;;;;;19.27;100.00;100518.78;4947533;28;20042;-83
2023/10/24 10:04:13;;;;;;;0.85;0.82;;;;;;;19.19;100.00;100505.72;4948611;28;20487;-86
2023/10/24 10:10:37;;;;;;;4.28;2.50;;;;;;;19.92;100.00;100609.72;4945563;28;20062;-85
2023/10/24 10:17:15;;;;;;;0.82;0.77;;;;;;;20.22;100.00;100597.09;4944410;28;20070;-85
2023/10/24 10:19:50;;;;;;;1.40;1.30;;;;;;;20.30;100.00;100589.69;4924339;29;20096;-86
2023/10/24 10:22:22;;;;;;;0.75;0.73;;;;;;;19.93;100.00;100502.28;4959023;28;20047;-84
2023/10/24 10:28:33;;;;;;;12.25;0.93;;;;;;;20.49;100.00;100603.19;4970207;28;20069;-85
2023/10/24 10:31:11;;;;;;;2.63;2.42;;;;;;;20.74;100.00;100596.94;4971888;28;20035;-85
2023/10/24 10:37:34;;;;;;;4.38;1.88;;;;;;;20.96;100.00;100583.63;4970472;28;20046;-86
2023/10/24 10:40:37;;;;;;;1.23;1.13;;;;;;;21.10;100.00;100583.06;4971852;28;20067;-86
2023/10/24 10:46:32;;;;;;;2.55;1.67;;;;;;;21.32;100.00;100540.31;4967850;28;20514;-84
2023/10/24 10:49:49;;;;;;;5.97;3.50;;;;;;;21.74;100.00;100567.00;4972416;28;20042;-89
2023/10/24 10:52:39;;;;;;;1.00;0.60;;;;;;;21.92;100.00;100560.84;4962675;28;20039;-86
2023/10/24 10:55:35;;;;;;;2.92;2.65;;;;;;;21.92;100.00;100558.19;4969222;28;20043;-89
2023/10/24 10:58:23;;;;;;;1.83;1.63;;;;;;;21.27;100.00;100439.94;4970627;28;20047;-85
2023/10/24 11:01:03;;;;;;;0.95;0.68;;;;;;;22.04;99.35;100545.22;4969066;28;20063;-85
2023/10/24 11:03:36;;;;;;;4.05;1.83;;;;;;;21.91;97.93;100536.84;4970912;28;20042;-85
2023/10/24 11:06:15;;;;;;;2.67;2.00;;;;;;;21.61;97.71;100477.66;4965628;28;20323;-86
2023/10/24 11:09:05;;;;;;;2.03;1.73;;;;;;;22.02;96.35;100507.00;4970179;28;20027;-86
2023/10/24 11:11:30;;;;;;;1.00;0.90;;;;;;;21.92;99.61;100477.16;4967055;28;20470;-85
2023/10/24 11:14:22;;;;;;;1.33;1.23;;;;;;;22.29;98.36;100536.97;4970257;28;20042;-86
2023/10/24 11:17:21;;;;;;;1.08;0.77;;;;;;;22.47;98.14;100529.88;4970547;28;20049;-85
2023/10/24 11:23:08;;;;;;;4.15;2.95;;;;;;;22.37;94.14;100529.44;4975347;28;20054;-87
2023/10/24 11:25:33;;;;;;;15.05;2.05;;;;;;;22.26;94.82;100526.38;4974796;28;20038;-86
2023/10/24 11:28:08;;;;;;;0.98;0.85;;;;;;;21.87;97.26;100445.31;4976225;28;20039;-86
2023/10/24 11:30:34;;;;;;;2.92;2.40;;;;;;;22.32;95.32;100516.28;4953222;28;20098;-85
2023/10/24 11:33:01;;;;;;;0.77;0.52;;;;;;;22.24;93.79;100496.19;4956910;28;20027;-85
2023/10/24 11:38:48;;;;;;;2.75;2.10;;;;;;;21.93;93.09;100461.03;4957156;28;20054;-86
2023/10/24 11:41:14;;;;;;;4.82;1.92;;;;;;;21.90;96.66;100436.28;4956937;28;20024;-85
2023/10/24 11:43:39;;;;;;;2.22;1.52;;;;;;;22.25;92.06;100480.09;4957678;28;20035;-85
2023/10/24 11:46:37;;;;;;;1.48;1.38;;;;;;;22.50;91.50;100514.56;4979976;28;20073;-86
2023/10/24 11:49:04;;;;;;;1.63;1.15;;;;;;;21.75;89.80;100402.25;4972225;28;20054;-86
2023/10/24 11:51:30;;;;;;;2.22;2.03;;;;;;;22.44;88.77;100516.66;4975022;28;20097;-85
2023/10/24 11:54:07;;;;;;;23.25;1.60;;;;;;;22.50;88.46;100510.97;4971378;28;20030;-84
2023/10/24 11:56:33;;;;;;;1.23;0.50;;;;;;;22.61;86.11;100505.13;4970755;28;20015;-86
2023/10/24 11:59:04;;;;;;;0.38;0.38;;;;;;;22.48;85.98;100473.63;4968178;28;20046;-87
2023/10/24 12:01:31;;;;;;;1.95;1.85;;;;;;;22.55;85.45;100477.75;5002045;28;20130;-84
2023/10/24 12:03:58;;;;;;;1.77;1.65;;;;;;;22.79;81.51;100498.03;4970653;28;20046;-85
2023/10/24 12:06:26;;;;;;;1.60;1.48;;;;;;;22.24;77.41;100432.91;4968595;28;20054;-88
2023/10/24 12:12:14;;;;;;;1.58;1.48;;;;;;;22.75;77.79;100452.66;4976637;28;20042;-88
2023/10/24 12:14:56;;;;;;;0.68;0.55;;;;;;;22.62;75.38;100434.66;4979363;28;20018;-86
2023/10/24 12:17:23;;;;;;;0.77;0.70;;;;;;;22.17;75.49;100350.38;4975615;28;20039;-86
2023/10/24 12:20:33;;;;;;;1.23;1.13;;;;;;;22.85;75.72;100454.88;4971682;28;20050;-87
2023/10/24 12:24:12;;;;;;;3.13;1.95;;;;;;;22.79;76.11;100445.38;4967308;28;20050;-85
2023/10/24 12:26:44;;;;;;;0.93;0.93;;;;;;;22.77;74.60;100423.19;4960333;28;20047;-85
2023/10/24 12:32:51;;;;;;;1.85;1.58;;;;;;;22.96;75.04;100432.00;4952555;28;20146;-87
2023/10/24 12:35:51;;;;;;;2.10;1.30;;;;;;;22.97;78.66;100439.09;4949983;29;20043;-87
2023/10/24 12:38:17;;;;;;;1.80;1.45;;;;;;;22.82;73.70;100429.16;4958000;28;20043;-86
2023/10/24 12:40:44;;;;;;;1.20;1.10;;;;;;;22.86;72.80;100408.47;4966858;28;20053;-86
2023/10/24 12:43:10;;;;;;;14.25;1.73;;;;;;;22.96;75.48;100420.44;4948223;28;20114;-86
2023/10/24 12:45:36;;;;;;;2.63;1.55;;;;;;;22.85;71.57;100412.06;4950104;28;20141;-86
2023/10/24 12:48:05;;;;;;;1.80;1.15;;;;;;;22.24;70.38;100304.59;4951933;28;20023;-87
2023/10/24 12:50:31;;;;;;;0.77;0.55;;;;;;;22.34;68.82;100323.72;4949596;28;20034;-86
2023/10/24 12:52:57;;;;;;;1.70;1.48;;;;;;;23.00;68.48;100426.53;4949869;28;20039;-84
2023/10/24 12:55:24;;;;;;;5.05;3.63;;;;;;;22.98;71.81;100410.50;4950266;28;20032;-86
2023/10/24 12:57:49;;;;;;;2.10;1.92;;;;;;;22.33;70.90;100327.31;4948544;28;20075;-87
2023/10/24 13:00:21;;;;;;;1.40;1.30;;;;;;;22.76;71.37;100379.50;4951761;28;20039;-87
2023/10/24 13:02:46;;;;;;;1.45;1.30;;;;;;;22.95;71.07;100408.88;4947580;29;20042;-87
2023/10/24 13:05:12;;;;;;;1.27;1.17;;;;;;;23.04;72.29;100418.28;4953023;28;20043;-85
2023/10/24 13:07:38;;;;;;;7.80;2.25;;;;;;;22.93;76.25;100418.78;4956095;28;20047;-86
2023/10/24 13:13:25;;;;;;;0.50;0.50;;;;;;;22.43;82.51;100368.72;4954047;28;20199;-87
2023/10/24 13:15:53;;;;;;;1.40;0.98;;;;;;;22.70;79.84;100408.38;4951574;28;20067;-86
2023/10/24 13:21:41;;;;;;;1.13;1.10;;;;;;;22.13;67.76;100306.91;4955258;28;20069;-87
2023/10/24 13:24:57;;;;;;;1.77;1.58;;;;;;;22.75;70.06;100419.72;4951737;28;20464;-86
2023/10/24 13:30:59;;;;;;;0.63;0.57;;;;;;;21.86;68.68;100312.66;4974883;28;20084;-88
2023/10/24 13:36:53;;;;;;;0.65;0.65;;;;;;;22.31;76.35;100396.94;4971705;28;20492;-86
2023/10/24 13:39:18;;;;;;;0.40;0.40;;;;;;;22.24;75.74;100390.16;4968619;28;20034;-87
2023/10/24 13:41:44;;;;;;;0.75;0.75;;;;;;;22.41;76.99;100404.50;4974358;28;20366;-87
2023/10/24 13:44:10;;;;;;;4.70;2.88;;;;;;;21.99;74.92;100354.84;4972792;28;20126;-87
2023/10/24 13:50:28;;;;;;;1.17;1.08;;;;;;;22.33;79.49;100404.84;4974641;28;20086;-87
2023/10/24 13:52:54;;;;;;;0.98;0.85;;;;;;;21.71;77.20;100308.94;4996222;28;20089;-87
2023/10/24 13:55:19;;;;;;;0.75;0.73;;;;;;;22.20;77.27;100409.06;4971537;28;20058;-85
2023/10/24 13:57:46;;;;;;;2.67;1.52;;;;;;;21.64;75.96;100302.16;4981580;28;20042;-86
2023/10/24 14:03:35;;;;;;;1.35;1.27;;;;;;;22.02;78.90;100379.59;4974436;28;20053;-88
2023/10/24 14:06:02;;;;;;;1.20;1.10;;;;;;;22.00;78.63;100376.09;5005107;28;20368;-87
2023/10/24 14:08:27;;;;;;;5.88;1.27;;;;;;;21.68;81.14;100330.44;4975133;28;20031;-87
2023/10/24 14:10:54;;;;;;;0.88;0.77;;;;;;;21.22;84.03;100247.13;4974019;28;20049;-86
2023/10/24 14:14:03;;;;;;;1.17;0.98;;;;;;;22.05;88.58;100390.13;4975942;28;20039;-86
2023/10/24 14:16:49;;;;;;;0.60;0.52;;;;;;;22.02;90.95;100384.91;4970870;28;20483;-86
2023/10/24 14:19:14;;;;;;;8.23;4.03;;;;;;;21.38;91.43;100254.44;4971209;28;20039;-86
2023/10/24 14:25:18;;;;;;;0.30;0.30;;;;;;;22.00;95.07;100360.06;4971151;28;20034;-84
2023/10/24 14:27:51;;;;;;;5.35;2.05;;;;;;;21.49;94.83;100286.84;4971941;28;20086;-85
2023/10/24 14:30:17;;;;;;;0.95;0.88;;;;;;;21.44;94.51;100280.84;4970190;28;20073;-85
2023/10/24 14:32:42;;;;;;;0.95;0.82;;;;;;;21.50;95.02;100291.25;4968117;28;20471;-85
2023/10/24 14:35:08;;;;;;;0.40;0.25;;;;;;;21.16;96.14;100239.41;4968452;28;20042;-87
2023/10/24 14:40:57;;;;;;;2.72;2.05;;;;;;;21.53;99.29;100330.28;4974031;28;20077;-85
2023/10/24 14:43:22;;;;;;;0.90;0.90;;;;;;;21.09;98.87;100253.97;4967895;28;20034;-86
2023/10/24 14:45:48;;;;;;;19.05;1.33;;;;;;;21.39;98.15;100317.56;4967139;28;20039;-85
2023/10/24 14:48:14;;;;;;;0.50;0.47;;;;;;;21.05;97.84;100274.59;4973911;28;20045;-85
2023/10/24 14:54:53;;;;;;;1.70;1.20;;;;;;;21.32;97.22;100346.31;4974299;28;20054;-84
2023/10/24 14:58:00;;;;;;;6.45;1.33;;;;;;;21.32;97.97;100332.97;4972245;28;20049;-84
2023/10/24 15:00:47;;;;;;;2.95;2.45;;;;;;;21.22;98.95;100327.19;4972949;28;20054;-86
2023/10/24 15:03:13;;;;;;;2.42;1.27;;;;;;;21.18;100.00;100335.41;4972277;28;20371;-75
2023/10/24 15:05:39;;;;;;;2.70;2.00;;;;;;;20.71;100.00;100272.59;4975180;28;20126;-75